Time;durP1;ratioP1;P1;durP2;ratioP2;P2;SDS_P1;SDS_P2;PMS_P1;PMS_P2;Temp;Humidity;BMP_temperature;BMP_pressure;BME280_temperature;BME280_humidity;BME280_pressure;Samples;Min_cycle;Max_cycle;Signal;HPM_P1;HPM_P2
2020/12/30 00:00:39;;;;;;;9.00;7.73;;;7.70;93.30;;;;;;5092060;28;20659;-75
2020/12/30 00:03:05;;;;;;;8.13;7.37;;;7.70;93.30;;;;;;5057967;28;20186;-75
2020/12/30 00:05:30;;;;;;;9.17;8.27;;;7.70;93.20;;;;;;5054920;28;20207;-75
2020/12/30 00:07:56;;;;;;;8.80;7.90;;;7.70;93.20;;;;;;5049734;28;20233;-75
2020/12/30 00:10:23;;;;;;;8.73;7.77;;;7.70;93.20;;;;;;5051165;28;20211;-75
2020/12/30 00:12:49;;;;;;;8.70;7.90;;;7.80;93.10;;;;;;5049958;28;20179;-77
2020/12/30 00:15:16;;;;;;;8.60;7.80;;;7.80;93.20;;;;;;5050904;28;20425;-75
2020/12/30 00:17:43;;;;;;;8.80;8.00;;;7.70;93.20;;;;;;5051961;28;20422;-75
2020/12/30 00:20:10;;;;;;;8.97;8.17;;;7.70;93.30;;;;;;5049643;28;20895;-75
2020/12/30 00:22:37;;;;;;;7.83;7.23;;;7.70;93.30;;;;;;5057884;28;20473;-75
2020/12/30 00:25:04;;;;;;;8.50;7.70;;;7.70;93.30;;;;;;5070763;28;20586;-76
2020/12/30 00:27:30;;;;;;;8.70;7.80;;;7.60;93.30;;;;;;5070406;28;20424;-76
2020/12/30 00:29:56;;;;;;;8.63;7.73;;;7.60;93.30;;;;;;5071294;28;20716;-75
2020/12/30 00:32:22;;;;;;;8.10;7.33;;;7.60;93.20;;;;;;5072270;28;20207;-75
2020/12/30 00:34:48;;;;;;;7.90;7.20;;;7.60;93.30;;;;;;5064963;28;20945;-78
2020/12/30 00:37:14;;;;;;;8.13;7.30;;;7.60;93.30;;;;;;5055378;28;20651;-76
2020/12/30 00:39:40;;;;;;;7.70;7.00;;;7.60;93.30;;;;;;5070730;28;20426;-75
2020/12/30 00:42:06;;;;;;;10.27;8.03;;;7.60;93.40;;;;;;5061196;28;20557;-75
2020/12/30 00:44:32;;;;;;;9.33;7.80;;;7.60;93.50;;;;;;5050541;28;20422;-75
2020/12/30 00:46:59;;;;;;;8.83;7.60;;;7.60;93.60;;;;;;5049794;28;20242;-76
2020/12/30 00:49:25;;;;;;;10.47;8.43;;;7.60;93.70;;;;;;5064795;28;20451;-75
2020/12/30 00:51:52;;;;;;;8.97;7.93;;;7.60;93.80;;;;;;5068046;28;20424;-78
2020/12/30 00:54:18;;;;;;;8.47;7.73;;;7.70;93.80;;;;;;5051528;28;20453;-77
2020/12/30 00:56:45;;;;;;;8.40;7.60;;;7.60;93.70;;;;;;5069003;28;20418;-77
2020/12/30 00:59:11;;;;;;;8.77;8.00;;;7.60;93.70;;;;;;5057572;28;20208;-78
2020/12/30 01:01:36;;;;;;;8.70;7.87;;;7.70;93.80;;;;;;5053662;28;20414;-77
2020/12/30 01:04:02;;;;;;;9.07;8.17;;;7.60;93.70;;;;;;5050906;28;20270;-78
2020/12/30 01:06:28;;;;;;;8.50;7.60;;;7.60;93.80;;;;;;5051488;28;20219;-77
2020/12/30 01:08:55;;;;;;;9.13;8.33;;;7.60;93.70;;;;;;5049713;28;20418;-78
2020/12/30 01:11:28;;;;;;;8.43;7.73;;;7.60;93.90;;;;;;5051202;28;20910;-77
2020/12/30 01:13:55;;;;;;;8.47;7.57;;;7.70;93.90;;;;;;5057209;28;20921;-77
2020/12/30 01:16:21;;;;;;;8.47;7.60;;;7.60;93.90;;;;;;5060431;28;20518;-77
2020/12/30 01:18:48;;;;;;;8.80;7.90;;;7.70;93.90;;;;;;5054116;28;20540;-77
2020/12/30 01:21:14;;;;;;;8.50;7.70;;;7.70;93.90;;;;;;5049433;28;20184;-77
2020/12/30 01:23:40;;;;;;;9.30;7.50;;;7.70;93.80;;;;;;5049726;28;20437;-77
2020/12/30 01:26:06;;;;;;;8.10;7.50;;;7.70;93.80;;;;;;5049153;28;20486;-74
2020/12/30 01:28:33;;;;;;;9.17;7.70;;;7.80;93.80;;;;;;5043150;28;20170;-77
2020/12/30 01:30:59;;;;;;;7.90;7.20;;;7.80;93.90;;;;;;5057315;28;20449;-78
2020/12/30 01:33:25;;;;;;;7.90;7.20;;;7.80;93.90;;;;;;5049965;28;20397;-76
2020/12/30 01:35:51;;;;;;;7.93;7.17;;;7.80;93.80;;;;;;5050749;28;20423;-77
2020/12/30 01:38:17;;;;;;;9.37;8.47;;;7.80;93.90;;;;;;5050979;28;20948;-73
2020/12/30 01:40:43;;;;;;;8.40;7.70;;;7.80;93.90;;;;;;5052767;28;20168;-73
2020/12/30 01:43:09;;;;;;;8.40;7.70;;;7.80;94.00;;;;;;5050271;28;21198;-73
2020/12/30 01:45:36;;;;;;;8.60;7.83;;;7.80;94.10;;;;;;5050217;28;20433;-73
2020/12/30 01:48:23;;;;;;;9.33;7.90;;;7.80;94.20;;;;;;5032406;28;20423;-74
2020/12/30 01:50:49;;;;;;;9.63;8.63;;;7.80;94.20;;;;;;5058802;28;20915;-74
2020/12/30 01:53:16;;;;;;;8.47;7.80;;;7.80;94.40;;;;;;5063823;28;20404;-77
2020/12/30 01:55:42;;;;;;;9.37;8.57;;;7.80;94.40;;;;;;5073089;28;20467;-74
2020/12/30 01:58:09;;;;;;;8.67;7.80;;;7.80;94.40;;;;;;5070854;28;20404;-73
2020/12/30 02:00:36;;;;;;;9.63;7.83;;;7.70;94.50;;;;;;5056129;28;20391;-74
2020/12/30 02:03:03;;;;;;;8.37;7.57;;;7.70;94.70;;;;;;5053486;28;20746;-74
2020/12/30 02:05:35;;;;;;;8.43;7.67;;;7.70;94.80;;;;;;5054414;28;20500;-74
2020/12/30 02:08:02;;;;;;;8.60;7.80;;;7.70;95.00;;;;;;5035444;28;20423;-74
2020/12/30 02:10:29;;;;;;;7.97;7.30;;;7.70;95.10;;;;;;5054581;28;20420;-74
2020/12/30 02:12:56;;;;;;;8.00;7.40;;;7.70;95.20;;;;;;5053343;28;20400;-75
2020/12/30 02:15:23;;;;;;;8.30;7.60;;;7.70;95.20;;;;;;5056120;28;20748;-74
2020/12/30 02:17:49;;;;;;;8.37;7.57;;;7.70;95.10;;;;;;5074137;28;20957;-74
2020/12/30 02:20:15;;;;;;;7.77;6.90;;;7.80;95.10;;;;;;5071207;28;20376;-74
2020/12/30 02:22:43;;;;;;;8.47;7.50;;;7.70;94.90;;;;;;5054302;28;20912;-74
2020/12/30 02:25:09;;;;;;;9.93;8.37;;;7.70;94.90;;;;;;5065994;28;20560;-74
2020/12/30 02:27:35;;;;;;;8.33;7.50;;;7.70;95.00;;;;;;5068042;28;20480;-74
2020/12/30 02:30:01;;;;;;;8.30;7.50;;;7.70;95.00;;;;;;5052806;28;20401;-74
2020/12/30 02:32:27;;;;;;;9.40;8.50;;;7.60;95.20;;;;;;5059512;28;20301;-74
2020/12/30 02:34:53;;;;;;;9.33;8.53;;;7.60;95.40;;;;;;5062021;28;20202;-76
2020/12/30 02:37:21;;;;;;;9.17;8.37;;;7.60;95.40;;;;;;5073858;28;20612;-74
2020/12/30 02:39:48;;;;;;;8.33;7.60;;;7.60;95.50;;;;;;5073519;28;20381;-74
2020/12/30 02:42:14;;;;;;;9.13;8.30;;;7.60;95.70;;;;;;5054263;28;20389;-74
2020/12/30 02:44:40;;;;;;;8.63;7.93;;;7.60;95.80;;;;;;5051876;28;20874;-74
2020/12/30 02:47:06;;;;;;;8.93;8.20;;;7.60;95.80;;;;;;5052501;28;20434;-75
2020/12/30 02:49:31;;;;;;;9.13;8.23;;;7.60;95.90;;;;;;5053043;28;20182;-75
2020/12/30 02:51:57;;;;;;;11.03;9.30;;;7.60;96.00;;;;;;5051793;28;20177;-74
2020/12/30 02:54:22;;;;;;;9.90;8.90;;;7.60;95.90;;;;;;5054738;28;20176;-75
2020/12/30 02:56:48;;;;;;;9.23;8.33;;;7.60;95.80;;;;;;5055291;28;20191;-74
2020/12/30 02:59:14;;;;;;;11.50;9.23;;;7.60;95.80;;;;;;5052394;28;20177;-74
2020/12/30 03:01:43;;;;;;;10.03;7.90;;;7.60;95.70;;;;;;5052039;28;20187;-74
2020/12/30 03:04:09;;;;;;;11.97;8.87;;;7.60;95.70;;;;;;5052773;28;20187;-74
2020/12/30 03:06:34;;;;;;;10.27;9.27;;;7.60;95.80;;;;;;5053144;28;20434;-75
2020/12/30 03:09:00;;;;;;;10.50;9.50;;;7.60;95.80;;;;;;5057510;28;20682;-75
2020/12/30 03:11:26;;;;;;;10.57;8.60;;;7.60;95.80;;;;;;5054048;28;20268;-75
2020/12/30 03:13:52;;;;;;;9.90;9.00;;;7.60;95.70;;;;;;5067241;28;20188;-77
2020/12/30 03:16:18;;;;;;;11.97;9.67;;;7.60;95.60;;;;;;5060742;28;20416;-75
2020/12/30 03:18:44;;;;;;;10.40;9.37;;;7.60;95.60;;;;;;5061572;28;20420;-75
2020/12/30 03:21:10;;;;;;;10.80;9.80;;;7.60;95.70;;;;;;5061945;28;20423;-75
2020/12/30 03:23:36;;;;;;;10.50;9.50;;;7.50;95.50;;;;;;5042808;28;20901;-75
2020/12/30 03:26:02;;;;;;;10.90;9.90;;;7.50;95.20;;;;;;5060217;28;20280;-75
2020/12/30 03:28:28;;;;;;;10.07;8.57;;;7.40;95.20;;;;;;5062099;28;20233;-75
2020/12/30 03:30:54;;;;;;;10.80;9.70;;;7.40;95.30;;;;;;5060472;28;20474;-76
2020/12/30 03:33:19;;;;;;;10.60;9.57;;;7.30;95.30;;;;;;5061854;28;20387;-75
2020/12/30 03:35:45;;;;;;;9.87;8.87;;;7.30;95.40;;;;;;5061678;28;20233;-75
2020/12/30 03:38:11;;;;;;;10.90;9.87;;;7.20;95.30;;;;;;5060411;28;20190;-75
2020/12/30 03:40:36;;;;;;;10.80;9.70;;;7.20;95.30;;;;;;5061332;28;20187;-75
2020/12/30 03:43:02;;;;;;;9.57;8.87;;;7.10;95.40;;;;;;5056324;28;20175;-75
2020/12/30 03:45:28;;;;;;;10.50;9.57;;;7.10;95.40;;;;;;5052666;28;20595;-75
2020/12/30 03:47:54;;;;;;;10.53;9.43;;;7.10;95.40;;;;;;5052348;28;20234;-77
2020/12/30 03:50:19;;;;;;;11.13;9.07;;;7.10;95.50;;;;;;5052991;28;20607;-75
2020/12/30 03:52:45;;;;;;;10.30;9.30;;;7.00;95.70;;;;;;5052602;28;20194;-75
2020/12/30 03:55:11;;;;;;;10.60;9.50;;;7.00;96.10;;;;;;5052048;28;20682;-75
2020/12/30 03:57:36;;;;;;;11.37;10.27;;;7.00;96.30;;;;;;5051425;28;20183;-75
2020/12/30 04:00:03;;;;;;;10.77;9.67;;;7.00;96.30;;;;;;5051831;28;20217;-75
2020/12/30 04:02:28;;;;;;;11.10;10.03;;;6.90;96.20;;;;;;5052566;28;20527;-75
2020/12/30 04:04:54;;;;;;;10.60;9.50;;;7.00;96.30;;;;;;5052048;28;20416;-77
2020/12/30 04:07:20;;;;;;;11.83;10.37;;;6.90;96.10;;;;;;5052296;28;20661;-74
2020/12/30 04:09:46;;;;;;;11.60;10.40;;;6.90;96.10;;;;;;5052220;28;20653;-75
2020/12/30 04:12:11;;;;;;;10.83;9.73;;;6.90;96.10;;;;;;5049966;28;20215;-74
2020/12/30 04:14:37;;;;;;;12.47;10.40;;;6.80;96.20;;;;;;5052358;28;20304;-74
2020/12/30 04:17:03;;;;;;;11.20;10.10;;;6.90;96.10;;;;;;5051399;28;20187;-75
2020/12/30 04:19:28;;;;;;;10.97;9.40;;;6.90;96.10;;;;;;5052314;28;20254;-74
2020/12/30 04:21:54;;;;;;;13.90;11.77;;;6.80;95.90;;;;;;5052143;28;20176;-75
2020/12/30 04:24:20;;;;;;;14.00;10.27;;;6.80;96.20;;;;;;5051422;28;20183;-75
2020/12/30 04:26:45;;;;;;;10.60;9.30;;;6.80;96.40;;;;;;5051937;28;20227;-74
2020/12/30 04:29:11;;;;;;;11.70;9.70;;;6.70;96.10;;;;;;5051080;28;20186;-75
2020/12/30 04:31:37;;;;;;;11.37;10.17;;;6.70;95.70;;;;;;5052172;28;20174;-75
2020/12/30 04:34:05;;;;;;;10.90;9.80;;;6.60;95.80;;;;;;5051317;28;20170;-75
2020/12/30 04:36:31;;;;;;;12.07;10.80;;;6.70;95.70;;;;;;5052081;28;20468;-75
2020/12/30 04:38:56;;;;;;;10.77;9.77;;;6.60;95.80;;;;;;5050643;28;20413;-76
2020/12/30 04:41:31;;;;;;;11.70;10.37;;;6.60;95.70;;;;;;5051687;28;20385;-75
2020/12/30 04:44:01;;;;;;;12.13;10.87;;;6.50;95.70;;;;;;5051906;28;20165;-77
2020/12/30 04:46:29;;;;;;;11.55;10.35;;;6.50;95.80;;;;;;5050705;28;20423;-75
2020/12/30 04:48:59;;;;;;;12.33;11.03;;;6.40;95.50;;;;;;5052117;28;20180;-75
2020/12/30 04:51:26;;;;;;;13.37;12.00;;;6.40;95.60;;;;;;5051766;28;20398;-75
2020/12/30 04:53:56;;;;;;;16.35;12.10;;;6.40;95.80;;;;;;5051827;28;20470;-75
2020/12/30 04:56:42;;;;;;;13.87;11.90;;;6.40;96.20;;;;;;5051218;28;20200;-75
2020/12/30 04:59:21;;;;;;;24.93;13.37;;;6.40;96.50;;;;;;5051049;28;20416;-75
2020/12/30 05:02:06;;;;;;;13.83;10.93;;;6.40;96.80;;;;;;5051902;28;20777;-75
2020/12/30 05:04:39;;;;;;;13.33;11.93;;;6.40;97.30;;;;;;5051770;28;20515;-75
2020/12/30 05:07:07;;;;;;;14.83;12.47;;;6.50;97.50;;;;;;5050709;28;20446;-75
2020/12/30 05:09:34;;;;;;;12.93;11.30;;;6.50;97.30;;;;;;5051585;28;20412;-75
2020/12/30 05:12:01;;;;;;;13.40;11.53;;;6.50;97.10;;;;;;5051431;28;20562;-77
2020/12/30 05:14:27;;;;;;;14.93;12.03;;;6.60;97.10;;;;;;5051695;28;20427;-74
2020/12/30 05:16:54;;;;;;;14.68;11.60;;;6.60;97.10;;;;;;5051723;28;20810;-74
2020/12/30 05:19:19;;;;;;;14.03;10.77;;;6.50;96.60;;;;;;5050907;28;20170;-74
2020/12/30 05:21:45;;;;;;;13.83;11.67;;;6.50;96.40;;;;;;5051375;28;20462;-75
2020/12/30 05:24:12;;;;;;;12.33;11.10;;;6.50;96.20;;;;;;5051753;28;20256;-75
2020/12/30 05:26:39;;;;;;;13.07;10.87;;;6.40;95.90;;;;;;5053762;28;20279;-75
2020/12/30 05:29:05;;;;;;;13.50;12.10;;;6.40;96.10;;;;;;5054635;28;20510;-75
2020/12/30 05:31:32;;;;;;;14.53;11.20;;;6.40;96.00;;;;;;5055367;28;20749;-75
2020/12/30 05:33:58;;;;;;;13.53;11.30;;;6.30;95.80;;;;;;5055008;28;20391;-75
2020/12/30 05:36:26;;;;;;;16.20;11.90;;;6.30;96.00;;;;;;5054726;28;20411;-75
2020/12/30 05:38:52;;;;;;;17.30;12.52;;;6.20;96.40;;;;;;5055265;28;20782;-75
2020/12/30 05:41:21;;;;;;;16.63;11.57;;;6.20;96.50;;;;;;5054375;28;20239;-75
2020/12/30 05:43:47;;;;;;;13.77;12.30;;;6.20;96.60;;;;;;5053854;28;20184;-75
2020/12/30 05:46:28;;;;;;;16.57;12.93;;;6.20;97.00;;;;;;5054221;28;20452;-75
2020/12/30 05:48:54;;;;;;;13.73;11.60;;;6.20;97.10;;;;;;5054928;28;20391;-75
2020/12/30 05:51:30;;;;;;;18.08;12.80;;;6.20;97.30;;;;;;5054117;28;20844;-74
2020/12/30 05:54:13;;;;;;;15.68;12.00;;;6.20;97.30;;;;;;5054808;28;20165;-75
2020/12/30 05:56:39;;;;;;;13.15;11.75;;;6.20;97.50;;;;;;5087420;28;20197;-75
2020/12/30 05:59:06;;;;;;;15.80;12.10;;;6.30;97.50;;;;;;5054184;28;20175;-76
2020/12/30 06:01:35;;;;;;;15.20;11.75;;;6.30;97.50;;;;;;5053250;28;20180;-75
2020/12/30 06:04:18;;;;;;;15.05;13.07;;;6.30;97.60;;;;;;5054592;28;20583;-76
2020/12/30 06:06:46;;;;;;;13.98;11.90;;;6.30;97.60;;;;;;5054481;28;20669;-75
2020/12/30 06:09:17;;;;;;;13.68;11.75;;;6.30;97.60;;;;;;5053269;28;20190;-75
2020/12/30 06:11:54;;;;;;;13.83;11.30;;;6.30;97.70;;;;;;5053409;28;20196;-74
2020/12/30 06:14:21;;;;;;;15.57;12.23;;;6.30;97.70;;;;;;5052747;28;20484;-75
2020/12/30 06:16:47;;;;;;;15.85;12.90;;;6.30;97.70;;;;;;5054457;28;20534;-75
2020/12/30 06:19:13;;;;;;;14.23;12.50;;;6.30;97.90;;;;;;5053297;28;20178;-75
2020/12/30 06:21:43;;;;;;;16.63;11.70;;;6.40;98.10;;;;;;5054217;28;20261;-75
2020/12/30 06:24:12;;;;;;;17.52;12.55;;;6.40;98.10;;;;;;5053258;28;20178;-75
2020/12/30 06:26:39;;;;;;;16.50;12.43;;;6.40;98.10;;;;;;5054064;28;20268;-75
2020/12/30 06:29:11;;;;;;;14.27;11.60;;;6.50;98.30;;;;;;5053851;28;20679;-77
2020/12/30 06:31:45;;;;;;;16.38;13.40;;;6.50;98.30;;;;;;5053694;28;20219;-74
2020/12/30 06:34:11;;;;;;;15.35;12.18;;;6.50;98.20;;;;;;5052100;28;20170;-75
2020/12/30 06:36:39;;;;;;;14.57;12.83;;;6.60;98.30;;;;;;5053655;28;20194;-75
2020/12/30 06:39:21;;;;;;;15.98;13.32;;;6.60;98.30;;;;;;5052528;28;20407;-77
2020/12/30 06:42:29;;;;;;;15.90;13.50;;;6.60;98.30;;;;;;5054018;28;20578;-75
2020/12/30 06:44:55;;;;;;;17.17;13.60;;;6.70;98.50;;;;;;5055921;28;20190;-74
2020/12/30 06:48:00;;;;;;;18.27;13.20;;;6.80;98.30;;;;;;5052957;28;20240;-75
2020/12/30 06:50:26;;;;;;;16.02;12.75;;;6.70;98.30;;;;;;5085305;28;20235;-75
2020/12/30 06:52:52;;;;;;;15.27;12.53;;;6.80;98.50;;;;;;5053734;28;20262;-75
2020/12/30 06:55:38;;;;;;;15.80;13.10;;;6.90;98.50;;;;;;5052997;28;20914;-74
2020/12/30 06:58:03;;;;;;;15.57;13.47;;;7.00;98.40;;;;;;5051933;28;20178;-75
2020/12/30 07:00:33;;;;;;;15.07;12.70;;;7.00;98.30;;;;;;5051800;28;20451;-75
2020/12/30 07:03:13;;;;;;;16.43;13.30;;;7.00;98.20;;;;;;5053728;28;20166;-75
2020/12/30 07:05:39;;;;;;;16.10;13.03;;;7.10;98.10;;;;;;5053433;28;20456;-75
2020/12/30 07:08:06;;;;;;;15.10;12.23;;;7.20;98.00;;;;;;5051911;28;20399;-77
2020/12/30 07:10:38;;;;;;;13.13;11.73;;;7.20;97.90;;;;;;5052851;28;20429;-75
2020/12/30 07:13:04;;;;;;;16.90;13.13;;;7.10;97.80;;;;;;5053560;28;20361;-75
2020/12/30 07:15:30;;;;;;;15.60;13.00;;;7.10;97.90;;;;;;5052485;28;20456;-74
2020/12/30 07:17:56;;;;;;;15.33;13.43;;;7.10;98.10;;;;;;5051263;28;20301;-82
2020/12/30 07:20:22;;;;;;;14.23;12.60;;;7.20;98.50;;;;;;5052445;28;20547;-75
2020/12/30 07:22:48;;;;;;;16.33;13.03;;;7.30;99.90;;;;;;5053528;28;20177;-81
2020/12/30 07:25:15;;;;;;;17.13;13.90;;;7.40;99.90;;;;;;5034125;28;20460;-81
2020/12/30 07:27:42;;;;;;;15.50;13.23;;;7.60;99.90;;;;;;5051556;28;20407;-80
2020/12/30 07:30:08;;;;;;;14.30;12.63;;;7.70;99.30;;;;;;5051253;28;20418;-85
2020/12/30 07:32:34;;;;;;;14.07;12.63;;;7.80;99.00;;;;;;5052788;28;20419;-81
2020/12/30 07:35:00;;;;;;;17.10;13.40;;;8.00;98.60;;;;;;5051574;28;20419;-81
2020/12/30 07:37:27;;;;;;;15.00;12.73;;;8.10;98.70;;;;;;5052269;28;20425;-81
2020/12/30 07:39:53;;;;;;;16.10;12.83;;;8.10;97.70;;;;;;5051770;28;20745;-81
2020/12/30 07:42:23;;;;;;;15.67;12.50;;;8.20;97.90;;;;;;5033568;28;20419;-82
2020/12/30 07:44:54;;;;;;;14.27;12.77;;;8.30;97.30;;;;;;5052878;28;20393;-82
2020/12/30 07:47:21;;;;;;;15.20;12.07;;;8.40;97.10;;;;;;5050221;28;20477;-82
2020/12/30 07:49:47;;;;;;;15.33;13.13;;;8.50;97.00;;;;;;5050737;28;20423;-82
2020/12/30 07:52:13;;;;;;;15.53;12.77;;;8.60;97.00;;;;;;5050542;28;20419;-82
2020/12/30 07:54:40;;;;;;;14.60;12.70;;;8.60;96.20;;;;;;5052403;28;20178;-81
2020/12/30 07:57:09;;;;;;;16.10;12.20;;;8.70;96.00;;;;;;5050692;28;20831;-81
2020/12/30 07:59:37;;;;;;;14.57;12.27;;;8.70;96.20;;;;;;5031002;28;20440;-81
2020/12/30 08:02:10;;;;;;;15.27;13.03;;;8.80;95.80;;;;;;5047644;28;20431;-82
2020/12/30 08:04:37;;;;;;;13.77;12.13;;;8.70;95.80;;;;;;5051687;28;20411;-82
2020/12/30 08:07:08;;;;;;;16.20;12.77;;;8.80;95.90;;;;;;5051765;28;20459;-82
2020/12/30 08:09:36;;;;;;;16.77;12.53;;;8.80;95.60;;;;;;5051085;28;20420;-82
2020/12/30 08:12:05;;;;;;;14.17;11.53;;;8.80;95.10;;;;;;5034236;28;20406;-82
2020/12/30 08:14:33;;;;;;;18.77;13.50;;;8.90;95.10;;;;;;5051222;28;20463;-82
2020/12/30 08:17:07;;;;;;;14.60;12.40;;;8.90;94.90;;;;;;5034351;28;20462;-82
2020/12/30 08:19:46;;;;;;;14.17;11.53;;;9.00;94.80;;;;;;5050480;28;20409;-84
2020/12/30 08:22:12;;;;;;;14.73;11.80;;;9.00;94.10;;;;;;5051707;28;20411;-76
2020/12/30 08:24:46;;;;;;;17.17;12.20;;;8.90;94.10;;;;;;5052317;28;20451;-74
2020/12/30 08:27:16;;;;;;;25.53;12.83;;;8.90;93.80;;;;;;5051548;28;20464;-76
2020/12/30 08:29:44;;;;;;;15.53;12.40;;;8.90;93.70;;;;;;5051976;28;20390;-75
2020/12/30 08:32:32;;;;;;;16.57;12.23;;;8.90;93.60;;;;;;5051593;28;20408;-76
2020/12/30 08:35:23;;;;;;;17.00;13.10;;;8.80;93.60;;;;;;5052291;28;20868;-75
2020/12/30 08:38:12;;;;;;;14.80;11.97;;;8.80;93.50;;;;;;5050886;28;20415;-74
2020/12/30 08:40:39;;;;;;;13.90;12.00;;;8.70;93.40;;;;;;5051582;28;20455;-75
2020/12/30 08:43:11;;;;;;;13.87;11.23;;;8.60;93.60;;;;;;5051048;28;20412;-75
2020/12/30 08:45:48;;;;;;;14.23;12.73;;;8.50;93.70;;;;;;5040492;28;20482;-75
2020/12/30 08:48:15;;;;;;;14.80;12.30;;;8.50;94.10;;;;;;5066492;28;20408;-76
2020/12/30 08:50:42;;;;;;;13.70;11.33;;;8.40;93.70;;;;;;5050866;28;20412;-74
2020/12/30 08:53:08;;;;;;;15.83;11.73;;;8.40;93.90;;;;;;5052092;28;20886;-74
2020/12/30 08:55:34;;;;;;;14.03;11.60;;;8.40;94.00;;;;;;5050801;28;20401;-74
2020/12/30 08:58:00;;;;;;;122.30;19.80;;;8.30;93.80;;;;;;5052450;28;20403;-74
2020/12/30 09:00:32;;;;;;;14.30;11.13;;;8.20;93.90;;;;;;5054860;28;20431;-74
2020/12/30 09:03:12;;;;;;;14.80;10.47;;;8.30;95.70;;;;;;5055821;28;20169;-73
2020/12/30 09:05:38;;;;;;;13.53;11.60;;;8.30;95.90;;;;;;5055258;28;20450;-74
2020/12/30 09:08:11;;;;;;;11.83;10.33;;;8.30;95.40;;;;;;5053916;28;20424;-74
2020/12/30 09:10:38;;;;;;;11.47;10.10;;;8.20;94.10;;;;;;5055112;28;20416;-74
2020/12/30 09:13:13;;;;;;;13.63;11.70;;;8.20;93.90;;;;;;5055411;28;20408;-75
2020/12/30 09:15:40;;;;;;;16.37;11.43;;;8.30;94.00;;;;;;5054759;28;20942;-74
2020/12/30 09:18:08;;;;;;;12.30;9.90;;;8.20;93.90;;;;;;5054650;28;20537;-75
2020/12/30 09:20:34;;;;;;;12.60;10.73;;;8.20;93.80;;;;;;5053672;28;20468;-74
2020/12/30 09:23:01;;;;;;;12.73;10.97;;;8.20;93.80;;;;;;5055624;28;20419;-75
2020/12/30 09:25:29;;;;;;;11.60;10.50;;;8.20;93.90;;;;;;5054077;28;20271;-75
2020/12/30 09:27:55;;;;;;;15.53;11.13;;;8.10;93.90;;;;;;5054959;28;20443;-75
2020/12/30 09:30:26;;;;;;;16.23;12.23;;;8.20;94.10;;;;;;5054408;28;20504;-75
2020/12/30 09:32:56;;;;;;;14.63;12.30;;;8.10;94.10;;;;;;5055186;28;20540;-75
2020/12/30 09:35:28;;;;;;;16.30;12.70;;;8.20;94.10;;;;;;5054491;28;20435;-74
2020/12/30 09:37:57;;;;;;;15.33;11.77;;;8.20;94.20;;;;;;5055442;28;20407;-74
2020/12/30 09:40:24;;;;;;;158.40;97.67;;;8.20;94.50;;;;;;5053239;28;20534;-74
2020/12/30 09:42:50;;;;;;;56.67;36.20;;;8.20;94.70;;;;;;5055270;28;20495;-75
2020/12/30 09:45:19;;;;;;;16.40;12.73;;;8.20;94.60;;;;;;5034612;28;20770;-81
2020/12/30 09:47:44;;;;;;;16.10;12.33;;;8.20;94.40;;;;;;5037095;28;20409;-75
2020/12/30 09:50:13;;;;;;;19.07;12.40;;;8.30;94.30;;;;;;5054512;28;20431;-75
2020/12/30 09:52:44;;;;;;;15.00;12.10;;;8.30;94.30;;;;;;5054110;28;20413;-75
2020/12/30 09:55:11;;;;;;;14.97;11.70;;;8.20;94.50;;;;;;5054700;28;20419;-75
2020/12/30 09:57:37;;;;;;;13.80;11.17;;;8.20;94.60;;;;;;5052936;28;20489;-75
2020/12/30 10:00:08;;;;;;;13.60;11.43;;;8.10;94.80;;;;;;5037260;28;20472;-75
2020/12/30 10:02:35;;;;;;;13.03;11.60;;;8.10;94.90;;;;;;5053992;28;20808;-74
2020/12/30 10:05:01;;;;;;;16.23;13.50;;;8.10;95.60;;;;;;5054811;28;20403;-74
2020/12/30 10:07:26;;;;;;;19.63;13.40;;;8.10;95.40;;;;;;5053966;28;20429;-74
2020/12/30 10:09:53;;;;;;;15.20;12.43;;;8.10;95.40;;;;;;5053431;28;20889;-82
2020/12/30 10:12:22;;;;;;;16.60;13.10;;;7.90;96.10;;;;;;5053079;28;20187;-84
2020/12/30 10:14:48;;;;;;;16.00;12.90;;;8.10;99.30;;;;;;5037002;28;20506;-83
2020/12/30 10:17:14;;;;;;;14.27;12.43;;;8.50;99.80;;;;;;5053655;28;20425;-83
2020/12/30 10:19:40;;;;;;;16.90;13.20;;;8.80;97.60;;;;;;5053141;28;20507;-82
2020/12/30 10:22:07;;;;;;;14.40;11.70;;;9.30;97.50;;;;;;5053145;28;20181;-82
2020/12/30 10:24:33;;;;;;;12.60;11.30;;;9.80;97.30;;;;;;5052111;28;20213;-83
2020/12/30 10:26:59;;;;;;;13.23;11.83;;;10.10;95.20;;;;;;5054357;28;20947;-83
2020/12/30 10:29:28;;;;;;;328.23;174.67;;;10.60;94.80;;;;;;5035609;28;20417;-83
2020/12/30 10:31:55;;;;;;;44.43;30.53;;;10.90;92.90;;;;;;5052993;28;20428;-83
2020/12/30 10:34:21;;;;;;;13.43;12.13;;;11.10;91.90;;;;;;5052191;28;20413;-85
2020/12/30 10:36:47;;;;;;;14.30;12.90;;;11.20;92.40;;;;;;5052928;28;20412;-83
2020/12/30 10:39:13;;;;;;;14.00;12.47;;;11.40;91.30;;;;;;5054195;28;20995;-83
2020/12/30 10:41:39;;;;;;;13.13;11.67;;;11.50;90.50;;;;;;5052135;28;20262;-83
2020/12/30 10:44:04;;;;;;;12.03;10.80;;;11.70;90.50;;;;;;5054022;28;20452;-83
2020/12/30 10:46:30;;;;;;;13.77;11.03;;;12.00;90.50;;;;;;5053250;28;20206;-83
2020/12/30 10:48:56;;;;;;;11.43;10.03;;;12.10;89.80;;;;;;5052792;28;20186;-83
2020/12/30 10:51:22;;;;;;;13.40;10.80;;;12.20;88.40;;;;;;5053174;28;20675;-84
2020/12/30 10:53:47;;;;;;;11.43;10.27;;;12.30;87.30;;;;;;5053822;28;20208;-83
2020/12/30 10:56:14;;;;;;;10.67;9.63;;;12.10;86.70;;;;;;5052556;28;20196;-83
2020/12/30 10:58:40;;;;;;;11.13;10.03;;;12.30;87.00;;;;;;5052979;28;20175;-83
2020/12/30 11:01:08;;;;;;;9.93;9.03;;;12.40;86.40;;;;;;5052374;28;20414;-83
2020/12/30 11:03:34;;;;;;;10.63;9.57;;;12.50;86.70;;;;;;5051567;28;20416;-83
2020/12/30 11:06:00;;;;;;;11.87;10.13;;;12.60;88.70;;;;;;5052104;28;20554;-83
2020/12/30 11:08:27;;;;;;;11.30;10.10;;;12.50;86.00;;;;;;5052685;28;20659;-84
2020/12/30 11:10:53;;;;;;;508.40;316.73;;;12.50;86.20;;;;;;5053247;28;20417;-84
2020/12/30 11:13:18;;;;;;;36.80;26.63;;;12.50;84.00;;;;;;5053115;28;20791;-83
2020/12/30 11:15:44;;;;;;;11.53;10.43;;;12.60;86.80;;;;;;5052675;28;20446;-83
2020/12/30 11:18:10;;;;;;;11.50;10.33;;;12.60;85.90;;;;;;5053341;28;20208;-82
2020/12/30 11:20:35;;;;;;;11.03;9.93;;;12.70;85.40;;;;;;5052055;28;20185;-83
2020/12/30 11:23:01;;;;;;;11.10;10.00;;;12.40;83.00;;;;;;5052111;28;20179;-83
2020/12/30 11:25:27;;;;;;;11.20;10.13;;;12.50;84.20;;;;;;5050284;28;20567;-83
2020/12/30 11:27:53;;;;;;;11.57;10.30;;;12.70;85.20;;;;;;5051949;28;20188;-83
2020/12/30 11:30:19;;;;;;;12.00;10.80;;;12.80;82.60;;;;;;5052169;28;20198;-83
2020/12/30 11:32:46;;;;;;;12.23;11.00;;;12.80;82.00;;;;;;5051248;28;20176;-83
2020/12/30 11:35:12;;;;;;;11.80;10.03;;;12.90;82.30;;;;;;5052917;28;20407;-83
2020/12/30 11:37:38;;;;;;;11.37;10.27;;;12.80;82.40;;;;;;5052224;28;20414;-83
2020/12/30 11:40:07;;;;;;;11.57;10.37;;;12.70;81.30;;;;;;5051625;28;20429;-83
2020/12/30 11:42:32;;;;;;;11.67;10.47;;;12.60;81.60;;;;;;5050502;28;20455;-83
2020/12/30 11:44:58;;;;;;;12.10;10.80;;;12.70;82.40;;;;;;5051403;28;20510;-83
2020/12/30 11:47:25;;;;;;;12.30;11.10;;;12.60;84.90;;;;;;5054446;28;20448;-84
2020/12/30 11:49:51;;;;;;;11.53;10.33;;;12.50;84.00;;;;;;5056498;28;20194;-83
2020/12/30 11:52:17;;;;;;;15.70;11.93;;;12.60;83.40;;;;;;5052310;28;20409;-83
2020/12/30 11:54:43;;;;;;;11.20;10.00;;;12.50;83.00;;;;;;5037780;28;20880;-83
2020/12/30 11:57:09;;;;;;;12.07;10.87;;;12.50;83.50;;;;;;5033168;28;20439;-81
2020/12/30 11:59:35;;;;;;;11.97;10.70;;;12.50;83.40;;;;;;5031364;28;20456;-81
2020/12/30 12:02:01;;;;;;;13.57;10.53;;;12.50;83.20;;;;;;5032568;28;20420;-81
2020/12/30 12:04:27;;;;;;;14.73;11.40;;;12.40;82.10;;;;;;5030170;28;20410;-81
2020/12/30 12:07:00;;;;;;;12.60;11.30;;;12.30;83.40;;;;;;5032388;28;20197;-81
2020/12/30 12:09:26;;;;;;;73.73;49.27;;;12.40;83.30;;;;;;5031799;28;20195;-82
2020/12/30 12:11:53;;;;;;;77.07;49.97;;;12.40;83.60;;;;;;5031345;28;20461;-82
2020/12/30 12:14:19;;;;;;;14.67;13.13;;;12.30;84.40;;;;;;5030742;28;20440;-83
2020/12/30 12:16:58;;;;;;;16.27;12.30;;;12.40;85.40;;;;;;5083852;28;20442;-83
2020/12/30 12:19:25;;;;;;;13.10;11.73;;;12.40;83.40;;;;;;5059374;28;20764;-83
2020/12/30 12:21:51;;;;;;;14.50;11.70;;;12.40;84.10;;;;;;5045210;28;20426;-83
2020/12/30 12:24:18;;;;;;;13.53;11.53;;;12.20;84.90;;;;;;5064626;28;20459;-84
2020/12/30 12:26:44;;;;;;;13.40;12.07;;;12.40;84.80;;;;;;5070664;28;20739;-83
2020/12/30 12:29:22;;;;;;;13.27;11.27;;;12.40;83.40;;;;;;5070565;28;20419;-83
2020/12/30 12:32:03;;;;;;;12.70;10.63;;;12.50;83.70;;;;;;5071853;28;20414;-82
2020/12/30 12:34:29;;;;;;;11.47;10.27;;;12.60;84.30;;;;;;5069059;28;20408;-84
2020/12/30 12:36:55;;;;;;;13.60;11.17;;;12.60;83.70;;;;;;5070470;28;20499;-83
2020/12/30 12:39:21;;;;;;;232.83;153.43;;;12.50;83.50;;;;;;5070806;28;20418;-83
2020/12/30 12:41:50;;;;;;;36.47;26.90;;;12.50;83.30;;;;;;5071453;28;20472;-83
2020/12/30 12:44:16;;;;;;;14.70;12.03;;;12.50;83.90;;;;;;5066523;28;20457;-83